LZPP METAR and TAF | Updated Today

LZPP METAR

Piešťany Airport

Observation time: 6 min. ago

LZPP 251930Z 36006KT CAVOK 13/11 Q1018

Need help? Read our tutorial on how to read METARs or read the parsed version below.

Piešťany Airport (LZPP) METAR

  • Weather conditions on Wed, 25 May 2022 19:30:00 +0000 (6 min. ago):
  • Present conditions: Dry
  • Clouds: Clear skies
  • Visibility: Greater than 10 km
  • Wind: 360 degrees at 6 knots
  • Temperature: 13 celsius
  • Dew point: 11 celsius
  • Pressure: 1018 millibars
  • Remarks: None


Useful to know...

LZPP TAF

Piešťany Airport

TAF LZPP 251715Z 2518/2603 35006KT CAVOK TEMPO 2518/2520 33013KT 9999 SCT030
Observation time: 2:21 hr. ago
Need help? Read our tutorial on how to read TAFs or read the parsed version below.

Parsed version of TAF for Piešťany Airport (LZPP)

  • From 25 May at 18:00 UTC, to day 26 of the month at 03:00 UTC
  • Visibility: Greater than 10 km
  • Wind: 350 degrees at 6
  • Expected to arise temporarily, from 25 May at 18:00 UTC, to day 25 of the month at 20:00 UTC
  • Clouds: Scattered at 914 meters
  • Visibility: Greater than 10 km
  • Wind: 330 degrees at 13